Time;durP1;ratioP1;P1;durP2;ratioP2;P2;SDS_P1;SDS_P2;PMS_P1;PMS_P2;Temp;Humidity;BMP_temperature;BMP_pressure;BME280_temperature;BME280_humidity;BME280_pressure;Samples;Min_cycle;Max_cycle;Signal;HPM_P1;HPM_P2
2023/07/19 00:00:54;;;;;;;858.80;618.65;;;;;;;;;;5029454;28;20909;-66
2023/07/19 00:03:25;;;;;;;862.90;627.13;;;;;;;;;;5024278;28;20443;-66
2023/07/19 00:05:52;;;;;;;853.40;616.17;;;;;;;;;;5029615;28;20433;-66
2023/07/19 00:08:21;;;;;;;857.50;615.93;;;;;;;;;;5029159;28;20451;-66
2023/07/19 00:10:51;;;;;;;846.75;606.70;;;;;;;;;;5037294;28;20704;-66
2023/07/19 00:13:18;;;;;;;839.80;602.08;;;;;;;;;;5020921;28;20440;-66
2023/07/19 00:15:45;;;;;;;845.70;611.90;;;;;;;;;;5027845;28;20453;-66
2023/07/19 00:18:12;;;;;;;844.53;615.05;;;;;;;;;;5032175;28;20496;-66
2023/07/19 00:20:39;;;;;;;837.80;604.42;;;;;;;;;;5032708;28;20421;-66
2023/07/19 00:23:07;;;;;;;839.10;603.80;;;;;;;;;;5033290;28;20468;-66
2023/07/19 00:25:34;;;;;;;841.63;600.60;;;;;;;;;;5010016;28;20527;-66
2023/07/19 00:28:01;;;;;;;836.13;594.10;;;;;;;;;;5025295;28;21121;-66
2023/07/19 00:30:28;;;;;;;834.83;590.42;;;;;;;;;;5025806;28;20430;-66
2023/07/19 00:32:55;;;;;;;835.42;590.42;;;;;;;;;;5033465;28;20429;-66
2023/07/19 00:35:23;;;;;;;840.08;595.30;;;;;;;;;;5034581;28;20429;-66
2023/07/19 00:37:50;;;;;;;841.20;603.63;;;;;;;;;;5025715;28;21221;-66
2023/07/19 00:40:18;;;;;;;853.15;620.63;;;;;;;;;;5029837;28;20430;-66
2023/07/19 00:42:45;;;;;;;852.55;606.97;;;;;;;;;;5025673;28;20439;-66
2023/07/19 00:45:12;;;;;;;830.10;577.17;;;;;;;;;;5034028;28;20959;-66
2023/07/19 00:47:40;;;;;;;834.38;589.65;;;;;;;;;;5029714;28;20438;-66
2023/07/19 00:50:07;;;;;;;829.88;569.75;;;;;;;;;;5029948;28;20475;-66
2023/07/19 00:52:35;;;;;;;827.80;572.70;;;;;;;;;;5018587;28;20427;-66
2023/07/19 00:55:02;;;;;;;834.30;595.42;;;;;;;;;;5030937;28;20464;-66
2023/07/19 00:57:29;;;;;;;836.55;596.10;;;;;;;;;;5028886;28;20464;-66
2023/07/19 00:59:56;;;;;;;829.60;578.15;;;;;;;;;;5025735;28;20434;-66
2023/07/19 01:02:23;;;;;;;829.45;578.20;;;;;;;;;;5026488;28;20514;-67
2023/07/19 01:04:51;;;;;;;824.60;562.75;;;;;;;;;;5022138;28;20786;-66
2023/07/19 01:07:18;;;;;;;831.17;579.00;;;;;;;;;;5028793;28;20504;-66
2023/07/19 01:09:49;;;;;;;843.67;576.27;;;;;;;;;;5030693;28;20467;-66
2023/07/19 01:12:16;;;;;;;847.25;577.95;;;;;;;;;;5030542;28;20531;-66
2023/07/19 01:14:46;;;;;;;828.88;562.97;;;;;;;;;;5030990;28;20434;-66
2023/07/19 01:17:13;;;;;;;829.50;574.00;;;;;;;;;;5027664;28;20426;-66
2023/07/19 01:19:45;;;;;;;831.60;590.83;;;;;;;;;;5018829;28;20443;-66
2023/07/19 01:22:13;;;;;;;824.05;559.67;;;;;;;;;;5031738;28;20460;-66
2023/07/19 01:24:43;;;;;;;824.83;572.30;;;;;;;;;;5019812;28;20960;-66
2023/07/19 01:27:10;;;;;;;830.97;563.63;;;;;;;;;;5025060;28;20484;-66
2023/07/19 01:29:49;;;;;;;830.55;552.70;;;;;;;;;;5025339;28;20431;-66
2023/07/19 01:32:17;;;;;;;834.30;572.80;;;;;;;;;;5027438;28;20525;-66
2023/07/19 01:34:44;;;;;;;839.60;576.70;;;;;;;;;;5029945;28;20530;-66
2023/07/19 01:37:11;;;;;;;830.15;557.35;;;;;;;;;;5026583;28;20434;-67
2023/07/19 01:39:38;;;;;;;833.43;556.03;;;;;;;;;;5026443;28;20557;-66
2023/07/19 01:42:06;;;;;;;830.97;553.15;;;;;;;;;;5026117;28;20489;-66
2023/07/19 01:44:33;;;;;;;831.78;558.90;;;;;;;;;;5025762;28;20813;-67
2023/07/19 01:47:00;;;;;;;835.42;569.85;;;;;;;;;;5031529;28;20432;-66
2023/07/19 01:49:27;;;;;;;828.10;551.10;;;;;;;;;;5022952;28;20460;-67
2023/07/19 01:51:55;;;;;;;833.47;562.38;;;;;;;;;;5029674;28;20429;-67
2023/07/19 01:54:22;;;;;;;829.13;572.40;;;;;;;;;;5026576;28;20459;-66
2023/07/19 01:56:49;;;;;;;821.00;554.55;;;;;;;;;;5029253;28;20786;-66
2023/07/19 01:59:16;;;;;;;828.50;567.97;;;;;;;;;;5024256;28;20923;-66
2023/07/19 02:01:44;;;;;;;823.15;582.95;;;;;;;;;;5031936;28;20440;-66
2023/07/19 02:04:11;;;;;;;814.97;541.50;;;;;;;;;;5029461;28;20556;-66
2023/07/19 02:06:41;;;;;;;827.33;581.73;;;;;;;;;;5022178;28;20430;-66
2023/07/19 02:09:08;;;;;;;818.58;566.20;;;;;;;;;;5017098;28;20471;-66
2023/07/19 02:11:35;;;;;;;817.35;543.05;;;;;;;;;;5013584;28;20481;-66
2023/07/19 02:14:02;;;;;;;812.65;581.50;;;;;;;;;;5029035;28;20441;-66
2023/07/19 02:16:30;;;;;;;810.00;545.88;;;;;;;;;;5020512;28;20530;-67
2023/07/19 02:18:57;;;;;;;818.77;565.20;;;;;;;;;;5017660;28;20482;-66
2023/07/19 02:21:24;;;;;;;820.58;546.60;;;;;;;;;;5031777;28;20436;-66
2023/07/19 02:23:51;;;;;;;817.40;551.20;;;;;;;;;;5028705;28;20434;-66
2023/07/19 02:26:18;;;;;;;818.47;564.03;;;;;;;;;;5023178;28;20434;-66
2023/07/19 02:28:46;;;;;;;820.55;546.63;;;;;;;;;;5022895;28;20525;-66
2023/07/19 02:31:13;;;;;;;816.87;538.27;;;;;;;;;;5007433;28;20588;-67
2023/07/19 02:33:40;;;;;;;815.33;528.13;;;;;;;;;;5027043;28;20431;-67
2023/07/19 02:36:11;;;;;;;817.58;538.85;;;;;;;;;;5032887;28;20428;-67
2023/07/19 02:38:38;;;;;;;815.72;540.97;;;;;;;;;;5031114;28;20450;-66
2023/07/19 02:41:10;;;;;;;815.15;541.75;;;;;;;;;;5030519;28;20983;-67
2023/07/19 02:43:37;;;;;;;826.53;540.50;;;;;;;;;;5028574;28;20431;-67
2023/07/19 02:46:04;;;;;;;831.30;549.83;;;;;;;;;;5032300;28;20481;-67
2023/07/19 02:48:31;;;;;;;825.53;555.28;;;;;;;;;;5032834;28;20960;-67
2023/07/19 02:50:58;;;;;;;828.65;545.00;;;;;;;;;;5029916;28;20521;-66
2023/07/19 02:53:26;;;;;;;822.83;546.28;;;;;;;;;;5037705;28;20431;-66
2023/07/19 02:55:53;;;;;;;831.13;557.17;;;;;;;;;;5028249;28;20440;-66
2023/07/19 02:58:20;;;;;;;835.03;565.17;;;;;;;;;;5030256;28;20518;-66
2023/07/19 03:00:47;;;;;;;839.75;576.65;;;;;;;;;;5032356;28;20434;-66
2023/07/19 03:03:21;;;;;;;846.42;602.10;;;;;;;;;;5034602;28;20460;-67
2023/07/19 03:05:48;;;;;;;836.15;585.90;;;;;;;;;;5028196;28;20478;-67
2023/07/19 03:08:15;;;;;;;838.88;580.70;;;;;;;;;;5012674;28;20518;-67
2023/07/19 03:10:42;;;;;;;838.97;565.63;;;;;;;;;;5034209;28;20937;-67
2023/07/19 03:13:10;;;;;;;830.38;564.00;;;;;;;;;;5028231;28;21149;-67
2023/07/19 03:15:40;;;;;;;841.13;572.33;;;;;;;;;;5028603;28;20433;-67
2023/07/19 03:18:08;;;;;;;840.90;583.88;;;;;;;;;;5030456;28;20817;-67
2023/07/19 03:20:35;;;;;;;839.28;586.90;;;;;;;;;;5039401;28;20429;-67
2023/07/19 03:23:02;;;;;;;843.45;584.83;;;;;;;;;;5039131;28;20479;-67
2023/07/19 03:25:30;;;;;;;840.80;571.63;;;;;;;;;;5021893;28;20437;-67
2023/07/19 03:27:59;;;;;;;847.55;601.25;;;;;;;;;;5012337;28;20439;-66
2023/07/19 03:30:27;;;;;;;851.90;594.50;;;;;;;;;;5012672;28;20514;-66
2023/07/19 03:32:54;;;;;;;840.35;565.72;;;;;;;;;;5026642;28;20431;-67
2023/07/19 03:35:21;;;;;;;847.80;579.90;;;;;;;;;;5027921;28;20422;-67
2023/07/19 03:37:48;;;;;;;848.72;590.13;;;;;;;;;;5031043;28;20427;-67
2023/07/19 03:40:16;;;;;;;845.15;575.45;;;;;;;;;;5028157;28;20438;-67
2023/07/19 03:42:43;;;;;;;850.70;599.38;;;;;;;;;;5021369;28;20493;-67
2023/07/19 03:45:11;;;;;;;845.55;603.30;;;;;;;;;;5034836;28;20439;-67
2023/07/19 03:47:39;;;;;;;853.30;601.53;;;;;;;;;;5030459;28;20458;-67
2023/07/19 03:50:07;;;;;;;836.42;572.72;;;;;;;;;;5026338;28;20559;-68
2023/07/19 03:52:34;;;;;;;842.08;578.83;;;;;;;;;;5025423;28;20966;-67
2023/07/19 03:55:03;;;;;;;831.83;561.92;;;;;;;;;;5021392;28;20513;-66
2023/07/19 03:57:30;;;;;;;843.63;590.97;;;;;;;;;;5036337;28;20508;-67
2023/07/19 03:59:57;;;;;;;816.95;556.70;;;;;;;;;;5030585;28;20455;-67
2023/07/19 04:02:24;;;;;;;823.55;550.50;;;;;;;;;;5024127;28;20786;-67
2023/07/19 04:04:51;;;;;;;826.78;566.53;;;;;;;;;;5025114;28;20433;-66
2023/07/19 04:07:21;;;;;;;818.87;534.70;;;;;;;;;;5017434;28;20686;-67
2023/07/19 04:09:48;;;;;;;818.58;563.03;;;;;;;;;;5023441;28;20899;-67
2023/07/19 04:12:16;;;;;;;814.78;542.90;;;;;;;;;;5021760;28;20462;-67
2023/07/19 04:14:43;;;;;;;822.53;552.80;;;;;;;;;;5026259;28;20508;-67
2023/07/19 04:17:11;;;;;;;826.28;547.95;;;;;;;;;;5023445;28;20487;-67
2023/07/19 04:19:38;;;;;;;820.17;543.73;;;;;;;;;;5031467;28;20435;-67
2023/07/19 04:22:05;;;;;;;818.53;537.83;;;;;;;;;;5030800;28;20877;-68
2023/07/19 04:24:32;;;;;;;818.67;541.47;;;;;;;;;;5036457;28;20486;-68
2023/07/19 04:26:59;;;;;;;828.85;567.35;;;;;;;;;;5031681;28;20829;-67
2023/07/19 04:29:27;;;;;;;822.65;528.83;;;;;;;;;;5030275;28;20437;-67
2023/07/19 04:31:54;;;;;;;831.63;577.80;;;;;;;;;;5021973;28;20470;-68
2023/07/19 04:34:21;;;;;;;835.90;587.67;;;;;;;;;;5020724;28;20435;-68
2023/07/19 04:36:48;;;;;;;832.83;587.13;;;;;;;;;;5003548;28;20437;-68
2023/07/19 04:39:16;;;;;;;835.25;585.60;;;;;;;;;;5004014;28;20432;-68
2023/07/19 04:41:49;;;;;;;841.97;591.73;;;;;;;;;;5032947;28;20485;-68
2023/07/19 04:44:16;;;;;;;848.45;592.55;;;;;;;;;;5026712;28;20937;-68
2023/07/19 04:46:44;;;;;;;857.10;613.28;;;;;;;;;;5021311;28;20449;-67
2023/07/19 04:49:11;;;;;;;867.70;625.20;;;;;;;;;;5023137;28;20440;-68
2023/07/19 04:51:41;;;;;;;885.22;653.63;;;;;;;;;;5019400;28;20465;-68
2023/07/19 04:54:08;;;;;;;899.87;672.30;;;;;;;;;;5022590;28;21046;-68
2023/07/19 04:56:36;;;;;;;913.45;692.97;;;;;;;;;;5027460;28;20429;-68
2023/07/19 04:59:03;;;;;;;918.13;702.77;;;;;;;;;;4997771;28;20493;-67
2023/07/19 05:01:30;;;;;;;919.15;704.92;;;;;;;;;;5018061;28;20456;-67
2023/07/19 05:04:00;;;;;;;927.50;716.35;;;;;;;;;;5018711;28;20518;-66
2023/07/19 05:06:27;;;;;;;928.08;716.30;;;;;;;;;;5022812;28;20462;-67
2023/07/19 05:08:54;;;;;;;939.38;738.72;;;;;;;;;;5021198;28;20434;-67
2023/07/19 05:11:25;;;;;;;950.80;756.35;;;;;;;;;;5017807;28;20527;-67
2023/07/19 05:13:52;;;;;;;954.22;762.38;;;;;;;;;;5029405;28;20436;-67
2023/07/19 05:16:19;;;;;;;953.97;767.17;;;;;;;;;;5026591;28;20899;-67
2023/07/19 05:18:46;;;;;;;958.15;772.53;;;;;;;;;;5016072;28;20808;-67
2023/07/19 05:21:14;;;;;;;961.25;781.75;;;;;;;;;;5004525;28;20526;-67
2023/07/19 05:23:41;;;;;;;961.83;779.65;;;;;;;;;;5026046;28;20520;-67
2023/07/19 05:26:12;;;;;;;970.08;795.88;;;;;;;;;;5024273;28;21024;-67
2023/07/19 05:28:39;;;;;;;968.15;798.05;;;;;;;;;;5023469;28;20426;-66
2023/07/19 05:31:08;;;;;;;978.65;806.20;;;;;;;;;;5019397;28;20431;-67
2023/07/19 05:33:38;;;;;;;978.65;812.90;;;;;;;;;;5026786;28;20836;-67
2023/07/19 05:36:05;;;;;;;980.28;815.40;;;;;;;;;;5023186;28;20536;-67
2023/07/19 05:38:33;;;;;;;993.42;833.65;;;;;;;;;;5008142;28;20438;-67
2023/07/19 05:41:00;;;;;;;993.73;836.60;;;;;;;;;;5020912;28;20496;-67
2023/07/19 05:43:32;;;;;;;998.15;846.90;;;;;;;;;;5021307;28;20435;-67
2023/07/19 05:46:06;;;;;;;1000.50;851.30;;;;;;;;;;5026021;28;20527;-67
2023/07/19 05:48:34;;;;;;;1000.88;854.67;;;;;;;;;;5024276;28;20432;-67
2023/07/19 05:51:02;;;;;;;1004.30;858.83;;;;;;;;;;5001015;28;20506;-67
2023/07/19 05:53:29;;;;;;;1015.00;875.03;;;;;;;;;;5003074;28;20438;-67
2023/07/19 05:55:59;;;;;;;1013.22;874.35;;;;;;;;;;5015619;28;20453;-66
2023/07/19 05:58:30;;;;;;;1011.17;874.88;;;;;;;;;;5027465;28;20952;-67
2023/07/19 06:00:57;;;;;;;1008.22;867.75;;;;;;;;;;5022073;28;20520;-66
2023/07/19 06:03:25;;;;;;;995.58;851.05;;;;;;;;;;5022020;28;20441;-66
2023/07/19 06:05:52;;;;;;;993.03;844.58;;;;;;;;;;5024350;28;20427;-66
2023/07/19 06:08:19;;;;;;;996.50;848.42;;;;;;;;;;5031330;28;20522;-67
2023/07/19 06:10:51;;;;;;;995.30;844.80;;;;;;;;;;5012674;28;20531;-66
2023/07/19 06:13:19;;;;;;;998.47;852.67;;;;;;;;;;5029819;28;20435;-66
2023/07/19 06:15:46;;;;;;;995.80;848.60;;;;;;;;;;5029810;28;20529;-66
2023/07/19 06:18:17;;;;;;;994.85;849.28;;;;;;;;;;5028410;28;20426;-67
2023/07/19 06:20:45;;;;;;;989.42;846.67;;;;;;;;;;5029358;28;20531;-66
2023/07/19 06:23:18;;;;;;;967.72;830.75;;;;;;;;;;5031026;28;20438;-66
2023/07/19 06:25:49;;;;;;;963.03;833.83;;;;;;;;;;5030514;28;20434;-67
2023/07/19 06:28:16;;;;;;;969.67;842.20;;;;;;;;;;5028015;28;20484;-67
2023/07/19 06:30:43;;;;;;;982.60;869.38;;;;;;;;;;5027804;28;20543;-66
2023/07/19 06:33:13;;;;;;;977.05;860.08;;;;;;;;;;5029892;28;20431;-66
2023/07/19 06:35:40;;;;;;;982.17;871.63;;;;;;;;;;5050321;28;20425;-66
2023/07/19 06:38:07;;;;;;;982.78;870.92;;;;;;;;;;5043980;28;20438;-66
2023/07/19 06:40:35;;;;;;;973.70;861.15;;;;;;;;;;5024579;28;20444;-67
2023/07/19 06:43:04;;;;;;;970.47;859.13;;;;;;;;;;5021890;28;20454;-66
2023/07/19 06:45:33;;;;;;;976.28;857.20;;;;;;;;;;5014275;28;20437;-67
2023/07/19 06:48:00;;;;;;;972.05;854.88;;;;;;;;;;5028707;28;20460;-66
2023/07/19 06:50:28;;;;;;;974.55;858.53;;;;;;;;;;5034145;28;20483;-67
2023/07/19 06:52:59;;;;;;;981.42;869.55;;;;;;;;;;5030308;28;20466;-67
2023/07/19 06:55:27;;;;;;;986.03;876.63;;;;;;;;;;5030926;28;20415;-67
2023/07/19 06:57:54;;;;;;;991.45;881.67;;;;;;;;;;5023738;28;20539;-67
2023/07/19 07:00:21;;;;;;;1007.47;897.17;;;;;;;;;;5018633;28;20527;-66
2023/07/19 07:02:48;;;;;;;994.95;885.40;;;;;;;;;;5031972;28;20430;-67
2023/07/19 07:05:16;;;;;;;992.83;883.53;;;;;;;;;;5027159;28;20427;-67
2023/07/19 07:07:43;;;;;;;997.43;887.57;;;;;;;;;;5036222;28;20436;-66
2023/07/19 07:10:10;;;;;;;990.67;881.30;;;;;;;;;;5021661;28;20435;-66
2023/07/19 07:12:37;;;;;;;988.00;878.65;;;;;;;;;;5025421;28;20422;-67
2023/07/19 07:15:05;;;;;;;982.78;870.45;;;;;;;;;;5029782;28;20440;-67
2023/07/19 07:17:32;;;;;;;977.38;867.08;;;;;;;;;;5028854;28;20438;-66
2023/07/19 07:19:59;;;;;;;969.30;848.22;;;;;;;;;;5026843;28;20430;-66
2023/07/19 07:22:27;;;;;;;970.08;843.33;;;;;;;;;;5008667;28;20493;-66
2023/07/19 07:24:54;;;;;;;976.25;856.38;;;;;;;;;;5028808;28;20426;-66
2023/07/19 07:27:22;;;;;;;967.75;840.28;;;;;;;;;;5026044;28;20937;-66
2023/07/19 07:29:49;;;;;;;974.37;850.70;;;;;;;;;;5030548;28;20807;-66
2023/07/19 07:32:16;;;;;;;988.20;876.10;;;;;;;;;;5025887;28;20664;-66
2023/07/19 07:34:46;;;;;;;990.22;880.53;;;;;;;;;;5028919;28;20440;-66
2023/07/19 07:37:13;;;;;;;983.80;874.22;;;;;;;;;;5026792;28;20466;-66
2023/07/19 07:39:47;;;;;;;1002.25;892.00;;;;;;;;;;5010908;28;20526;-66
2023/07/19 07:42:14;;;;;;;1009.33;898.42;;;;;;;;;;5026135;28;20482;-68
2023/07/19 07:44:42;;;;;;;1019.83;908.78;;;;;;;;;;5025816;28;20434;-67
2023/07/19 07:47:22;;;;;;;1047.18;935.28;;;;;;;;;;5022130;28;20441;-67
2023/07/19 07:49:50;;;;;;;1024.43;913.40;;;;;;;;;;5013338;28;20435;-66
2023/07/19 07:52:17;;;;;;;999.20;889.88;;;;;;;;;;5027076;28;20567;-66
2023/07/19 07:54:46;;;;;;;1025.00;913.92;;;;;;;;;;5006486;28;20515;-66
2023/07/19 07:57:13;;;;;;;1039.55;927.58;;;;;;;;;;5009847;28;20512;-66
2023/07/19 07:59:48;;;;;;;1018.83;908.05;;;;;;;;;;5016675;28;20475;-65
2023/07/19 08:02:16;;;;;;;1003.50;894.05;;;;;;;;;;5027386;28;20423;-66
2023/07/19 08:04:43;;;;;;;1010.83;901.60;;;;;;;;;;5027098;28;20822;-66
2023/07/19 08:07:10;;;;;;;1040.00;929.08;;;;;;;;;;5027540;28;20427;-66
2023/07/19 08:09:40;;;;;;;1036.55;925.78;;;;;;;;;;5027419;28;20888;-67
2023/07/19 08:12:08;;;;;;;1051.07;939.83;;;;;;;;;;5028681;28;20557;-66
2023/07/19 08:14:40;;;;;;;1051.63;940.53;;;;;;;;;;5031087;28;20460;-66
2023/07/19 08:17:08;;;;;;;1046.03;935.25;;;;;;;;;;5008218;28;20467;-66
2023/07/19 08:19:35;;;;;;;1040.28;929.05;;;;;;;;;;5035203;28;20511;-65
2023/07/19 08:22:06;;;;;;;1072.93;959.72;;;;;;;;;;5021438;28;21688;-64
2023/07/19 08:24:33;;;;;;;1093.13;978.97;;;;;;;;;;5015138;28;20438;-65
2023/07/19 08:27:01;;;;;;;1095.85;981.53;;;;;;;;;;5027910;28;20489;-64
2023/07/19 08:29:31;;;;;;;1086.18;972.47;;;;;;;;;;5017548;28;21138;-64
2023/07/19 08:31:58;;;;;;;1073.93;960.60;;;;;;;;;;5008558;28;20480;-67
2023/07/19 08:34:25;;;;;;;1101.85;987.35;;;;;;;;;;5012783;28;20508;-64
2023/07/19 08:36:52;;;;;;;1096.93;982.87;;;;;;;;;;5028686;28;20433;-65
2023/07/19 08:39:20;;;;;;;1088.43;974.67;;;;;;;;;;5029163;28;20494;-65
2023/07/19 08:41:47;;;;;;;1087.82;973.78;;;;;;;;;;5022169;28;20785;-65
2023/07/19 08:44:17;;;;;;;1077.43;963.95;;;;;;;;;;5027305;28;20431;-66
2023/07/19 08:46:47;;;;;;;1080.82;966.90;;;;;;;;;;5026866;28;20423;-64
2023/07/19 08:49:21;;;;;;;1079.07;965.03;;;;;;;;;;5028436;28;20419;-64
2023/07/19 08:51:51;;;;;;;1081.97;967.55;;;;;;;;;;5026156;28;20431;-65
2023/07/19 08:54:18;;;;;;;1085.15;970.25;;;;;;;;;;5027753;28;20431;-65
2023/07/19 08:56:46;;;;;;;1091.75;976.72;;;;;;;;;;5027464;28;20427;-65
2023/07/19 08:59:13;;;;;;;1115.50;999.33;;;;;;;;;;5024321;28;21037;-65
2023/07/19 09:01:43;;;;;;;1115.05;999.00;;;;;;;;;;5028423;28;20430;-64
2023/07/19 09:04:10;;;;;;;1141.35;999.90;;;;;;;;;;5027485;28;20485;-64
2023/07/19 09:06:45;;;;;;;1131.82;999.90;;;;;;;;;;5026948;28;20519;-65
2023/07/19 09:09:18;;;;;;;1128.47;999.90;;;;;;;;;;5016194;28;20515;-65
2023/07/19 09:11:49;;;;;;;1121.90;999.90;;;;;;;;;;5016145;28;20444;-65
2023/07/19 09:14:16;;;;;;;1123.78;999.90;;;;;;;;;;5007901;28;20504;-65
2023/07/19 09:16:46;;;;;;;1128.18;999.90;;;;;;;;;;5008764;28;20428;-67
2023/07/19 09:19:14;;;;;;;1132.20;999.90;;;;;;;;;;5027491;28;20568;-64
2023/07/19 09:21:44;;;;;;;1136.53;999.90;;;;;;;;;;5027787;28;20435;-66
2023/07/19 09:24:12;;;;;;;1135.73;999.90;;;;;;;;;;5025102;28;20803;-66
2023/07/19 09:26:53;;;;;;;1124.18;999.90;;;;;;;;;;5027849;28;20446;-64
2023/07/19 09:29:21;;;;;;;1131.40;999.90;;;;;;;;;;5025812;28;20468;-64
2023/07/19 09:31:56;;;;;;;1131.03;999.90;;;;;;;;;;5027962;28;20545;-65
2023/07/19 09:34:23;;;;;;;1139.68;999.90;;;;;;;;;;5027348;28;20794;-65
2023/07/19 09:36:51;;;;;;;1103.80;987.70;;;;;;;;;;5027606;28;20442;-65
2023/07/19 09:39:18;;;;;;;1091.83;976.97;;;;;;;;;;5025123;28;20772;-65
2023/07/19 09:41:48;;;;;;;1078.38;963.58;;;;;;;;;;5031894;28;21017;-65
2023/07/19 09:44:18;;;;;;;1084.03;968.25;;;;;;;;;;5027406;28;20464;-66
2023/07/19 09:46:48;;;;;;;1093.13;976.88;;;;;;;;;;5031961;28;20495;-64
2023/07/19 09:49:15;;;;;;;1091.28;975.30;;;;;;;;;;5030902;28;20821;-65
2023/07/19 09:51:43;;;;;;;1090.32;974.42;;;;;;;;;;5031620;28;20523;-67
2023/07/19 09:54:11;;;;;;;1084.07;968.58;;;;;;;;;;5030797;28;20694;-65
2023/07/19 09:56:42;;;;;;;1099.30;982.88;;;;;;;;;;5029441;28;20501;-65
2023/07/19 09:59:12;;;;;;;1088.13;972.67;;;;;;;;;;5029219;28;20430;-65
2023/07/19 10:01:39;;;;;;;1085.30;969.88;;;;;;;;;;5031765;28;20832;-65
2023/07/19 10:04:25;;;;;;;1088.00;972.20;;;;;;;;;;5030889;28;20920;-65
2023/07/19 10:07:08;;;;;;;1064.47;950.10;;;;;;;;;;5028659;28;20836;-65
2023/07/19 10:09:39;;;;;;;1069.20;954.45;;;;;;;;;;5025263;28;20427;-67
2023/07/19 10:12:23;;;;;;;1060.78;946.40;;;;;;;;;;5022311;28;20436;-65
2023/07/19 10:15:09;;;;;;;1043.78;930.75;;;;;;;;;;5011083;28;20432;-65
2023/07/19 10:17:42;;;;;;;1056.13;941.88;;;;;;;;;;5023137;28;20481;-65
2023/07/19 10:20:12;;;;;;;1047.60;933.60;;;;;;;;;;5030804;28;20423;-65
2023/07/19 10:22:46;;;;;;;1048.43;934.33;;;;;;;;;;5029035;28;20474;-66
2023/07/19 10:25:15;;;;;;;1052.38;937.92;;;;;;;;;;5030838;28;20430;-65
2023/07/19 10:27:42;;;;;;;1046.93;933.23;;;;;;;;;;5030803;28;20469;-65
2023/07/19 10:30:09;;;;;;;1053.65;940.13;;;;;;;;;;5031044;28;20499;-65
2023/07/19 10:32:43;;;;;;;1095.40;979.60;;;;;;;;;;5030242;28;20438;-65
2023/07/19 10:35:30;;;;;;;1144.88;999.90;;;;;;;;;;5030472;28;20431;-65
2023/07/19 10:37:57;;;;;;;1170.28;999.90;;;;;;;;;;5030194;28;20431;-66
2023/07/19 10:40:27;;;;;;;1176.65;999.90;;;;;;;;;;5029902;28;20431;-65
2023/07/19 10:42:54;;;;;;;1176.63;999.90;;;;;;;;;;5029293;28;20466;-64
2023/07/19 10:45:25;;;;;;;1167.70;999.90;;;;;;;;;;5030434;28;20466;-65
2023/07/19 10:47:53;;;;;;;1163.65;999.90;;;;;;;;;;5027998;28;20795;-65
2023/07/19 10:50:24;;;;;;;1121.28;999.90;;;;;;;;;;5030745;28;20430;-64
2023/07/19 10:52:54;;;;;;;1121.50;999.90;;;;;;;;;;5029733;28;20426;-65
2023/07/19 10:55:22;;;;;;;1111.88;997.25;;;;;;;;;;5011976;28;20905;-63
2023/07/19 10:58:09;;;;;;;1110.70;996.70;;;;;;;;;;5030055;28;20998;-65
2023/07/19 11:00:38;;;;;;;1096.43;981.67;;;;;;;;;;5012265;28;20956;-64
2023/07/19 11:03:07;;;;;;;1098.63;983.55;;;;;;;;;;5027271;28;20536;-65
2023/07/19 11:05:40;;;;;;;1087.28;972.22;;;;;;;;;;5038332;28;20431;-64
2023/07/19 11:08:08;;;;;;;1081.70;967.10;;;;;;;;;;5029833;28;20463;-64
2023/07/19 11:10:35;;;;;;;1065.72;951.92;;;;;;;;;;5038033;28;20485;-64
2023/07/19 11:13:02;;;;;;;1064.72;950.90;;;;;;;;;;5015846;28;20444;-64
2023/07/19 11:15:30;;;;;;;1064.40;950.50;;;;;;;;;;5024193;28;20434;-65
2023/07/19 11:17:57;;;;;;;1067.05;953.05;;;;;;;;;;5029961;28;20439;-64
2023/07/19 11:20:30;;;;;;;1075.85;961.40;;;;;;;;;;5027683;28;20430;-66
2023/07/19 11:23:15;;;;;;;1067.80;953.67;;;;;;;;;;5033814;28;20521;-64
2023/07/19 11:25:42;;;;;;;1060.70;946.80;;;;;;;;;;5029579;28;20518;-65
2023/07/19 11:28:12;;;;;;;1052.20;938.85;;;;;;;;;;5049815;28;20428;-65
2023/07/19 11:30:40;;;;;;;1052.63;939.35;;;;;;;;;;5032363;28;20516;-64
2023/07/19 11:33:09;;;;;;;1052.60;939.05;;;;;;;;;;5040210;28;20429;-64
2023/07/19 11:35:36;;;;;;;1064.20;950.07;;;;;;;;;;5037364;28;20532;-66
2023/07/19 11:38:04;;;;;;;1066.88;952.58;;;;;;;;;;5019234;28;21089;-65
2023/07/19 11:40:31;;;;;;;1079.27;964.50;;;;;;;;;;5029141;28;20430;-65
2023/07/19 11:42:58;;;;;;;1092.20;976.35;;;;;;;;;;5028701;28;20447;-66
2023/07/19 11:45:27;;;;;;;1098.30;982.27;;;;;;;;;;5033492;28;21127;-64
2023/07/19 11:47:59;;;;;;;1073.88;959.30;;;;;;;;;;5006038;28;20467;-64
2023/07/19 11:50:26;;;;;;;1074.07;959.37;;;;;;;;;;5028531;28;20531;-63
2023/07/19 11:52:54;;;;;;;1086.53;971.10;;;;;;;;;;5036859;28;20435;-64
2023/07/19 11:55:21;;;;;;;1073.60;958.83;;;;;;;;;;5029139;28;20427;-65
2023/07/19 11:57:51;;;;;;;1088.43;972.90;;;;;;;;;;5029375;28;20534;-63
2023/07/19 12:00:22;;;;;;;1070.95;956.33;;;;;;;;;;5028802;28;20449;-64
2023/07/19 12:02:50;;;;;;;1088.07;972.47;;;;;;;;;;5009454;28;20470;-65
2023/07/19 12:05:21;;;;;;;1099.23;983.07;;;;;;;;;;5046260;28;20504;-63
2023/07/19 12:07:51;;;;;;;1104.13;987.92;;;;;;;;;;5038432;28;20442;-63
2023/07/19 12:10:20;;;;;;;1111.32;994.47;;;;;;;;;;5027308;28;20447;-64
2023/07/19 12:12:50;;;;;;;1103.88;987.33;;;;;;;;;;5027906;28;20488;-63
2023/07/19 12:15:18;;;;;;;1114.07;997.15;;;;;;;;;;5027041;28;20442;-64
2023/07/19 12:17:45;;;;;;;1120.40;999.90;;;;;;;;;;5011302;28;20430;-64
2023/07/19 12:20:12;;;;;;;1116.20;998.83;;;;;;;;;;5018392;28;20427;-63
2023/07/19 12:22:48;;;;;;;1113.05;995.85;;;;;;;;;;5028428;28;20968;-65
2023/07/19 12:25:16;;;;;;;1115.15;998.65;;;;;;;;;;5026215;28;20453;-63
2023/07/19 12:27:52;;;;;;;1113.17;996.30;;;;;;;;;;5028810;28;20535;-64
2023/07/19 12:30:19;;;;;;;1106.65;990.20;;;;;;;;;;5010985;28;21036;-64
2023/07/19 12:32:49;;;;;;;1113.03;996.23;;;;;;;;;;5028695;28;20439;-64
2023/07/19 12:35:19;;;;;;;1118.27;999.90;;;;;;;;;;5027435;28;20531;-63
2023/07/19 12:37:47;;;;;;;1120.78;999.90;;;;;;;;;;5037150;28;20500;-63
2023/07/19 12:40:17;;;;;;;1119.07;999.90;;;;;;;;;;5030008;28;20435;-63
2023/07/19 12:42:44;;;;;;;1122.15;999.90;;;;;;;;;;5029787;28;20484;-65
2023/07/19 12:45:11;;;;;;;1113.88;996.92;;;;;;;;;;5029069;28;20430;-65
2023/07/19 12:47:41;;;;;;;1115.85;998.72;;;;;;;;;;5029236;28;20462;-66
2023/07/19 12:50:08;;;;;;;1101.93;986.40;;;;;;;;;;5029700;28;20470;-65
2023/07/19 12:52:36;;;;;;;1097.90;981.67;;;;;;;;;;5033781;28;20441;-66
2023/07/19 12:55:18;;;;;;;1104.53;988.20;;;;;;;;;;5027649;28;20430;-66
2023/07/19 12:57:45;;;;;;;1104.47;988.08;;;;;;;;;;5026737;28;20431;-65
2023/07/19 13:00:13;;;;;;;1100.03;983.92;;;;;;;;;;5028987;28;20463;-65
2023/07/19 13:02:44;;;;;;;1094.80;978.97;;;;;;;;;;5027673;28;20496;-64
2023/07/19 13:05:11;;;;;;;1102.00;985.58;;;;;;;;;;5028775;28;20493;-64
2023/07/19 13:07:42;;;;;;;1070.43;955.75;;;;;;;;;;5026690;28;20488;-64
2023/07/19 13:10:13;;;;;;;1050.75;937.42;;;;;;;;;;5029135;28;20515;-66
2023/07/19 13:12:41;;;;;;;1041.07;928.23;;;;;;;;;;5029355;28;20430;-67
2023/07/19 13:15:09;;;;;;;1009.20;898.30;;;;;;;;;;5022760;28;20460;-66
2023/07/19 13:17:36;;;;;;;1006.03;895.15;;;;;;;;;;5022870;28;20426;-66
2023/07/19 13:20:08;;;;;;;994.65;884.58;;;;;;;;;;5026119;28;20429;-63
2023/07/19 13:22:36;;;;;;;991.65;881.97;;;;;;;;;;5005240;28;20462;-63
2023/07/19 13:25:05;;;;;;;971.63;845.22;;;;;;;;;;5038276;28;20976;-65
2023/07/19 13:27:33;;;;;;;966.20;823.20;;;;;;;;;;5027612;28;20436;-64
2023/07/19 13:30:00;;;;;;;959.53;803.22;;;;;;;;;;5008568;28;20440;-65
2023/07/19 13:32:28;;;;;;;952.22;781.78;;;;;;;;;;5009614;28;20827;-65
2023/07/19 13:34:58;;;;;;;954.88;784.25;;;;;;;;;;5025557;28;20916;-65
2023/07/19 13:37:28;;;;;;;952.67;781.38;;;;;;;;;;5026791;28;20435;-65
2023/07/19 13:39:58;;;;;;;962.13;795.70;;;;;;;;;;5010329;28;20452;-66
2023/07/19 13:42:25;;;;;;;968.42;803.53;;;;;;;;;;5009253;28;20535;-66
2023/07/19 13:44:52;;;;;;;975.33;814.15;;;;;;;;;;5020517;28;20506;-66
2023/07/19 13:47:20;;;;;;;974.67;810.60;;;;;;;;;;5029058;28;20431;-66
2023/07/19 13:49:47;;;;;;;976.90;818.60;;;;;;;;;;5010947;28;20430;-65
2023/07/19 13:52:17;;;;;;;989.17;837.70;;;;;;;;;;5028678;28;20434;-66
2023/07/19 13:54:44;;;;;;;1003.40;861.35;;;;;;;;;;5028111;28;20427;-65